Latest Coastal Weather Observations for Merimbula

IDN60701

Issued at 6:21 am EDT Saturday 10 December 2016 (issued every 10 minutes, with the page automatically refreshed every 10 minutes)

About coastal observations | Map of coastal stations | Coastal observations for NSW | Marine services | Other Formats
Station Details ID: 069147 Name: MERIMBULA AIRPORT AWS Lat: -36.91 Lon: 149.90 Height: 1.5 m
Data from the previous 72 hours. | See also: Recent months at Merimbula
Date/Time
EDT
Temp
°C
Wind Pressure Rain since
9am
mm
Weather Cloud Vis
km
Sea
Height
m
Swell
Dir  Spd
kts
Gust
kts
hPa Trend Height
m
Period
s
Dir
10/06:00am 10.1 NW 5 7 1021.3 - 0.0 - - 10 - - - -
10/05:30am 9.5 WNW 3 5 1021.0 - 0.0 - - 10 - - - -
10/05:00am 9.4 W 6 8 1020.5 - 0.0 - - 10 - - - -
10/04:30am 10.2 NW 6 7 1020.1 - 0.0 - - 10 - - - -
10/04:00am 9.7 NW 4 6 1019.9 - 0.0 - - 10 - - - -
10/03:30am 11.1 WNW 5 8 1019.8 - 0.0 - - 10 - - - -
10/03:00am 12.3 W 5 9 1019.8 - 0.0 - - 10 - - - -
10/02:30am 12.3 NW 4 7 1019.7 - 0.0 - - 10 - - - -
10/02:00am 13.3 WSW 4 10 1019.7 - 0.0 - - 10 - - - -
10/01:30am 13.9 WSW 8 15 1019.5 - 0.0 - - 10 - - - -
10/01:00am 13.9 WSW 9 14 1019.5 - 0.0 - - 10 - - - -
10/12:30am 13.9 WSW 6 8 1019.7 - 0.0 - - 10 - - - -
10/12:00am 14.1 W 7 12 1019.6 - 0.0 - - 10 - - - -
 
Date/Time
EDT
Temp
°C
Wind Pressure Rain since
9am
mm
Weather Cloud Vis
km
Sea
Height
m
Swell
Dir  Spd
kts
Gust
kts
hPa Trend Height
m
Period
s
Dir
09/11:30pm 14.2 W 5 10 1019.3 - 0.0 - - 10 - - - -
09/11:00pm 14.9 WSW 8 14 1019.2 - 0.0 - - 10 - - - -
09/10:30pm 14.7 WSW 8 14 1018.7 - 0.0 - - 10 - - - -
09/10:00pm 14.3 SW 7 11 1018.2 - 0.0 - - 10 - - - -
09/09:30pm 14.8 SSW 9 12 1017.8 - 0.0 - - 10 - - - -
09/09:00pm 15.3 SSW 7 14 1017.3 - 0.0 - - 10 - - - -
09/08:30pm 15.7 S 8 12 1016.7 - 0.0 - - 10 - - - -
09/08:00pm 16.3 SSW 9 15 1016.0 - 0.0 - - 10 - - - -
09/07:30pm 17.3 SSW 9 13 1015.3 - 0.0 - - 10 - - - -
09/07:00pm 18.3 SW 13 22 1014.6 - 0.0 - - 10 - - - -
09/06:30pm 18.8 SSW 11 20 1013.9 - 0.0 - - 10 - - - -
09/06:03pm 19.1 SSW 15 25 1013.3 - 0.0 - - 10 - - - -
09/06:00pm 19.0 SSW 16 25 1013.4 - 0.0 - Mostly clear 10 - - - -
09/05:35pm 20.0 SSW 15 25 1012.9 - 0.0 - - 10 - - - -
09/05:30pm 20.3 SSW 13 23 1012.8 - 0.0 - - 10 - - - -
09/05:02pm 20.7 SSW 15 26 1012.4 - 0.0 - - 10 - - - -
09/05:00pm 20.7 SSW 14 26 1012.4 - 0.0 - - 10 - - - -
09/04:30pm 20.9 SW 16 30 1012.0 - 0.0 - Partly cloudy 10 - - - -
09/04:24pm 21.4 SW 15 25 1011.9 - 0.0 - Partly cloudy 10 - - - -
09/04:00pm 21.0 SW 12 19 1011.7 - 0.0 - Partly cloudy 10 - - - -
09/03:30pm 20.8 WSW 13 23 1011.5 - 0.0 - Partly cloudy 10 - - - -
09/03:00pm 20.8 SW 14 29 1011.5 - 0.0 - Mostly clear 10 - - - -
09/02:57pm 20.4 SW 12 29 1011.4 - 0.0 - Partly cloudy 10 - - - -
09/02:30pm 19.4 SW 13 20 1011.5 - 0.0 - Partly cloudy 10 - - - -
09/02:00pm 19.4 SW 12 17 1011.1 - 0.0 - Partly cloudy 10 - - - -
09/01:44pm 20.6 WSW 15 27 1011.0 - 0.0 - Partly cloudy 10 - - - -
09/01:30pm 20.1 SW 13 25 1010.8 - 0.0 - Partly cloudy 10 - - - -
09/01:12pm 20.7 WSW 15 25 1010.5 - 0.0 - Partly cloudy 10 - - - -
09/01:00pm 19.2 WSW 15 24 1010.3 - 0.0 - Partly cloudy 10 - - - -
09/12:30pm 19.1 SW 10 25 1010.4 - 0.0 - Partly cloudy 10 - - - -
09/12:00pm 19.1 WSW 14 22 1010.2 - 0.0 - Mostly cloudy 10 - - - -
09/11:30am 20.3 WSW 13 21 1009.9 - 0.0 - Partly cloudy 10 - - - -
09/11:05am 18.7 WSW 14 25 1009.4 - 0.0 - Partly cloudy 10 - - - -
09/11:00am 19.7 SW 13 22 1009.4 - 0.0 - Partly cloudy 10 - - - -
09/10:30am 18.7 SW 14 27 1009.1 - 0.0 - Partly cloudy 10 - - - -
09/10:09am 18.4 WSW 15 25 1008.7 - 0.0 - Partly cloudy 10 - - - -
09/10:00am 18.0 WSW 15 24 1008.7 - 0.0 - - 10 - - - -
09/09:34am 17.6 WSW 16 26 1008.6 - 0.0 - - 10 - - - -
09/09:30am 17.6 WSW 16 24 1008.4 - 0.0 - - 10 - - - -
09/09:00am 17.2 W 16 26 1008.4 - 0.2 - Mostly clear 10 - - - -
09/08:49am 17.0 WSW 16 27 1008.3 - 0.2 - - 10 - - - -
09/08:30am 16.8 WSW 13 28 1008.1 - 0.2 - - 10 - - - -
09/08:22am 16.3 WSW 15 28 1008.1 - 0.2 - - 10 - - - -
09/08:00am 16.3 WSW 13 27 1007.7 - 0.2 - - 10 - - - -
09/07:41am 15.7 WSW 15 25 1007.4 - 0.2 - - 10 - - - -
09/07:30am 15.9 WSW 10 21 1007.1 - 0.2 - - 10 - - - -
09/07:00am 14.4 WSW 11 17 1006.5 - 0.2 - Partly cloudy 10 - - - -
09/06:30am 15.0 WSW 12 21 1006.0 - 0.2 - Cloudy 10 - - - -
09/06:00am 14.6 WSW 8 16 1005.3 - 0.2 - Mostly cloudy 10 - - - -
09/05:30am 14.0 SW 7 13 1004.5 - 0.2 - Partly cloudy 10 - - - -
09/05:00am 14.8 SW 9 16 1004.1 - 0.2 - Cloudy 10 - - - -
09/04:30am 15.0 SW 11 17 1003.5 - 0.2 - Partly cloudy 10 - - - -
09/04:00am 15.4 SW 11 18 1003.0 - 0.2 - Cloudy 10 - - - -
09/03:30am 15.4 SW 11 19 1002.6 - 0.2 - Partly cloudy 10 - - - -
09/03:00am 15.6 SW 10 17 1002.1 - 0.2 - Cloudy 10 - - - -
09/02:30am 15.6 SW 11 21 1001.4 - 0.2 - - 10 - - - -
09/02:00am 15.5 SSW 9 15 1001.0 - 0.2 - Partly cloudy 10 - - - -
09/01:30am 15.6 S 7 11 1000.6 - 0.2 - Partly cloudy 10 - - - -
09/01:00am 16.5 SSW 9 14 1000.5 - 0.2 - Partly cloudy 10 - - - -
09/12:30am 15.8 WSW 5 7 1000.0 - 0.2 - Partly cloudy 10 - - - -
09/12:00am 16.6 W 5 7 999.9 - 0.2 - - 10 - - - -
 
Date/Time
EDT
Temp
°C
Wind Pressure Rain since
9am
mm
Weather Cloud Vis
km
Sea
Height
m
Swell
Dir  Spd
kts
Gust
kts
hPa Trend Height
m
Period
s
Dir
08/11:30pm 17.4 W 5 7 999.9 - 0.2 - - 10 - - - -
08/11:00pm 17.9 W 8 13 999.6 - 0.2 - - 10 - - - -
08/10:30pm 16.4 WSW 7 11 999.4 - 0.2 - - 10 - - - -
08/10:00pm 16.5 SW 6 11 999.5 - 0.2 - Partly cloudy 10 - - - -
08/09:30pm 16.6 SSW 9 12 999.2 - 0.2 - Partly cloudy 10 - - - -
08/09:00pm 17.1 SSW 11 16 998.3 - 0.0 - Cloudy 10 - - - -
08/08:30pm 17.6 S 11 17 998.4 - 0.0 - Partly cloudy 10 - - - -
08/08:00pm 19.1 S 8 13 997.8 - 0.0 - Partly cloudy 10 - - - -
08/07:30pm 20.7 S 6 8 997.4 - 0.0 - Partly cloudy 10 - - - -
08/07:00pm 21.6 S 8 14 996.5 - 0.0 - Partly cloudy 6 - - - -
08/06:30pm 22.5 SSW 3 13 995.8 - 0.0 - Partly cloudy 7 - - - -
08/06:00pm 22.6 NNE 3 5 995.1 - 0.0 - Cloudy 10 - - - -
08/05:30pm 22.3 NE 8 12 994.4 - 0.0 - Cloudy 10 - - - -
08/05:00pm 22.3 NNE 10 18 994.3 - 0.0 - Partly cloudy 10 - - - -
08/04:30pm 22.6 NNE 15 28 994.2 - 0.0 - Partly cloudy 10 - - - -
08/04:00pm 22.8 NNE 15 25 994.7 - 0.0 - Partly cloudy 10 - - - -
08/03:57pm 23.0 NNE 15 25 994.6 - 0.0 - Partly cloudy 10 - - - -
08/03:30pm 23.7 NNE 13 23 995.2 - 0.0 - Partly cloudy 10 - - - -
08/03:00pm 24.4 NNE 14 23 995.5 - 0.0 - - 10 - - - -
08/02:30pm 24.5 NE 13 22 996.5 - 0.0 - - 10 - - - -
08/02:00pm 24.3 NNE 9 13 997.6 - 0.0 - - 10 - - - -
08/01:30pm 23.7 NNE 12 18 997.8 - 0.0 - - 10 - - - -
08/01:00pm 23.6 NE 9 16 998.5 - 0.0 - - 10 - - - -
08/12:30pm 23.9 NNE 9 14 999.3 - 0.0 - - 10 - - - -
08/12:00pm 23.0 NNE 10 16 1000.0 - 0.0 - - 10 - - - -
08/11:30am 23.0 NNE 9 16 1000.7 - 0.0 - - 10 - - - -
08/11:00am 24.0 NNE 9 18 1001.3 - 0.0 - - 10 - - - -
08/10:30am 24.4 N 6 12 1001.9 - 0.0 - - 10 - - - -
08/10:00am 23.1 NE 5 7 1002.6 - 0.0 - - 10 - - - -
08/09:30am 22.8 N 5 9 1003.4 - 0.0 - - 10 - - - -
08/09:00am 22.2 N 5 10 1004.0 - 0.0 - - 10 - - - -
08/08:30am 20.3 NW 4 6 1004.7 - 0.0 - - 10 - - - -
08/08:00am 19.7 NW 6 8 1005.1 - 0.0 - - 10 - - - -
08/07:30am 17.9 NW 6 8 1005.6 - 0.0 - - 10 - - - -
08/07:00am 16.6 WNW 3 6 1006.1 - 0.0 - - 10 - - - -
08/06:30am 15.3 NW 4 6 1006.1 - 0.0 - - 10 - - - -
08/06:00am 14.3 SW 2 6 1006.6 - 0.0 - - 10 - - - -
08/05:30am 14.9 NNW 3 7 1006.7 - 0.0 - - 10 - - - -
08/05:21am 15.0 CALM 0 0 1006.6 - 0.0 - - 9 - - - -
08/05:00am 13.5 CALM 0 0 1006.8 - 0.0 - - 4 - - - -
08/04:42am 13.8 CALM 0 0 1007.3 - 0.0 - - 5 - - - -
08/04:30am 13.8 CALM 0 0 1007.3 - 0.0 - - 9 - - - -
08/04:24am 14.3 CALM 0 0 1007.5 - 0.0 - - 9 - - - -
08/04:04am 14.0 CALM 0 3 1007.6 - 0.0 - - 5 - - - -
08/04:02am 14.2 WSW 1 3 1007.7 - 0.0 - - 6 - - - -
08/04:00am 14.3 WSW 1 3 1007.7 - 0.0 - - 7 - - - -
08/03:44am 14.7 SW 2 5 1008.1 - 0.0 - - 5 - - - -
08/03:30am 14.4 CALM 0 0 1008.3 - 0.0 - - 10 - - - -
08/03:00am 15.3 CALM 0 0 1009.2 - 0.0 - - 10 - - - -
08/02:30am 15.9 CALM 0 0 1009.7 - 0.0 - - 10 - - - -
08/02:00am 17.4 N 4 5 1010.2 - 0.0 - Partly cloudy 10 - - - -
08/01:30am 17.7 N 4 6 1010.8 - 0.0 - Partly cloudy 10 - - - -
08/01:00am 17.9 N 5 8 1011.2 - 0.0 - - 10 - - - -
08/12:30am 18.0 N 5 8 1011.6 - 0.0 - Partly cloudy 10 - - - -
08/12:00am 18.2 N 5 8 1011.8 - 0.0 - Mostly cloudy 10 - - - -
 
Date/Time
EDT
Temp
°C
Wind Pressure Rain since
9am
mm
Weather Cloud Vis
km
Sea
Height
m
Swell
Dir  Spd
kts
Gust
kts
hPa Trend Height
m
Period
s
Dir
07/11:30pm 18.3 N 6 10 1012.0 - 0.0 - Partly cloudy 10 - - - -
07/11:00pm 18.8 N 6 11 1012.5 - 0.0 - Partly cloudy 10 - - - -
07/10:30pm 18.8 N 6 9 1012.8 - 0.0 - Partly cloudy 10 - - - -
07/10:00pm 18.7 N 5 8 1012.9 - 0.0 - Partly cloudy 10 - - - -
07/09:30pm 18.9 N 5 8 1013.4 - 0.0 - Partly cloudy 10 - - - -
07/09:00pm 19.0 N 5 9 1013.5 - 0.0 - Cloudy 10 - - - -
07/08:30pm 19.2 NNE 6 8 1013.5 - 0.0 - Cloudy 10 - - - -
07/08:00pm 19.0 NNE 6 10 1013.6 - 0.0 - Partly cloudy 10 - - - -
07/07:30pm 18.9 NE 7 11 1013.6 - 0.0 - Partly cloudy 10 - - - -
07/07:00pm 18.9 ENE 6 9 1013.5 - 0.0 - Cloudy 10 - - - -
07/06:30pm 18.8 ENE 5 9 1013.6 - 0.0 - Cloudy 10 - - - -
07/06:00pm 19.2 E 5 9 1013.6 - 0.0 - Cloudy 10 - - - -
07/05:30pm 20.0 E 6 8 1013.5 - 0.0 - Partly cloudy 10 - - - -
07/05:00pm 19.4 ESE 6 10 1013.9 - 0.0 - Partly cloudy 10 - - - -
07/04:30pm 20.6 SE 7 10 1014.1 - 0.0 - Partly cloudy 10 - - - -
07/04:00pm 20.2 SE 8 12 1014.2 - 0.0 - Cloudy 10 - - - -
07/03:30pm 20.8 ESE 9 13 1014.4 - 0.0 - Partly cloudy 10 - - - -
07/03:00pm 20.4 ESE 9 13 1014.7 - 0.0 - - 10 - - - -
07/02:30pm 20.7 ESE 8 13 1015.0 - 0.0 - - 10 - - - -
07/02:00pm 20.6 SE 9 13 1015.1 - 0.0 - - 10 - - - -
07/01:30pm 20.3 ESE 10 14 1015.2 - 0.0 - - 10 - - - -
07/01:00pm 20.1 ESE 10 14 1015.4 - 0.0 - - 10 - - - -
07/12:30pm 20.1 ESE 9 13 1015.6 - 0.0 - - 10 - - - -
07/12:00pm 19.7 ESE 9 13 1015.6 - 0.0 - - 10 - - - -
07/11:30am 19.8 E 8 13 1015.6 - 0.0 - - 10 - - - -
07/11:00am 20.5 ESE 8 11 1015.4 - 0.0 - Partly cloudy 10 - - - -
07/10:30am 20.2 ENE 8 11 1015.4 - 0.0 - - 10 - - - -
07/10:00am 19.9 E 7 10 1015.4 - 0.0 - Partly cloudy 10 - - - -
07/09:30am 19.4 E 7 10 1015.8 - 0.0 - Partly cloudy 10 - - - -
07/09:00am 18.6 NW 4 7 1016.1 - 0.0 - - 10 - - - -
07/08:30am 18.1 S 3 7 1016.1 - 0.0 - - 10 - - - -
07/08:00am 17.1 SSW 5 7 1016.2 - 0.0 - Partly cloudy 10 - - - -
07/07:30am 16.2 CALM 0 0 1016.1 - 0.0 - - 10 - - - -
07/07:00am 14.5 CALM 0 0 1015.9 - 0.0 - Partly cloudy 10 - - - -
07/06:30am 14.4 CALM 0 0 1015.6 - 0.0 - Cloudy 10 - - - -

Other Formats:

Comma delimited format used in spreadsheet applications
http://www.bom.gov.au/fwo/IDN60701/IDN60701.95929.axf

JavaScript Object Notation format (JSON) in row-major order
http://www.bom.gov.au/fwo/IDN60701/IDN60701.95929.json